sensor_id;sensor_type;location;lat;lon;timestamp;temperature;humidity
14735;DHT22;7458;49.002;8.472;2023-08-06T00:02:52;17.30;99.90
14735;DHT22;7458;49.002;8.472;2023-08-06T00:05:18;17.30;99.90
14735;DHT22;7458;49.002;8.472;2023-08-06T00:07:46;17.90;99.90
14735;DHT22;7458;49.002;8.472;2023-08-06T00:12:39;17.80;99.90
14735;DHT22;7458;49.002;8.472;2023-08-06T00:17:33;17.80;99.90
14735;DHT22;7458;49.002;8.472;2023-08-06T00:19:59;17.50;99.90
14735;DHT22;7458;49.002;8.472;2023-08-06T00:22:33;17.70;99.90
14735;DHT22;7458;49.002;8.472;2023-08-06T00:25:01;17.20;99.90
14735;DHT22;7458;49.002;8.472;2023-08-06T00:29:53;17.50;99.90
14735;DHT22;7458;49.002;8.472;2023-08-06T00:32:19;17.70;99.90
14735;DHT22;7458;49.002;8.472;2023-08-06T00:34:45;17.40;99.90
14735;DHT22;7458;49.002;8.472;2023-08-06T00:37:11;17.50;99.90
14735;DHT22;7458;49.002;8.472;2023-08-06T00:42:03;17.20;99.90
14735;DHT22;7458;49.002;8.472;2023-08-06T00:44:29;17.20;99.90
14735;DHT22;7458;49.002;8.472;2023-08-06T00:46:55;17.40;99.90
14735;DHT22;7458;49.002;8.472;2023-08-06T00:49:21;17.40;99.90
14735;DHT22;7458;49.002;8.472;2023-08-06T00:54:14;17.50;99.90
14735;DHT22;7458;49.002;8.472;2023-08-06T00:56:41;17.60;99.90
14735;DHT22;7458;49.002;8.472;2023-08-06T00:59:08;17.30;99.90
14735;DHT22;7458;49.002;8.472;2023-08-06T01:01:36;17.40;99.90
14735;DHT22;7458;49.002;8.472;2023-08-06T01:06:48;18.00;99.90
14735;DHT22;7458;49.002;8.472;2023-08-06T01:15:24;17.40;99.90
14735;DHT22;7458;49.002;8.472;2023-08-06T01:17:54;17.60;99.90
14735;DHT22;7458;49.002;8.472;2023-08-06T01:20:20;17.50;99.90
14735;DHT22;7458;49.002;8.472;2023-08-06T01:22:46;17.40;99.90
14735;DHT22;7458;49.002;8.472;2023-08-06T01:25:15;17.40;99.90
14735;DHT22;7458;49.002;8.472;2023-08-06T01:27:46;17.30;99.90
14735;DHT22;7458;49.002;8.472;2023-08-06T01:30:25;17.40;99.90
14735;DHT22;7458;49.002;8.472;2023-08-06T01:33:00;17.20;99.90
14735;DHT22;7458;49.002;8.472;2023-08-06T01:35:30;18.60;99.90
14735;DHT22;7458;49.002;8.472;2023-08-06T01:37:57;17.60;99.90
14735;DHT22;7458;49.002;8.472;2023-08-06T01:40:25;17.50;99.90
14735;DHT22;7458;49.002;8.472;2023-08-06T01:47:44;17.60;99.90
14735;DHT22;7458;49.002;8.472;2023-08-06T01:50:10;17.60;99.90
14735;DHT22;7458;49.002;8.472;2023-08-06T01:55:02;17.60;99.90
14735;DHT22;7458;49.002;8.472;2023-08-06T02:02:20;17.30;99.90
14735;DHT22;7458;49.002;8.472;2023-08-06T02:09:38;17.90;99.90
14735;DHT22;7458;49.002;8.472;2023-08-06T02:12:04;17.10;99.90
14735;DHT22;7458;49.002;8.472;2023-08-06T02:14:30;17.00;99.90
14735;DHT22;7458;49.002;8.472;2023-08-06T02:16:56;17.20;99.90
14735;DHT22;7458;49.002;8.472;2023-08-06T02:19:22;16.90;99.90
14735;DHT22;7458;49.002;8.472;2023-08-06T02:21:47;16.90;99.90
14735;DHT22;7458;49.002;8.472;2023-08-06T02:24:13;17.00;99.90
14735;DHT22;7458;49.002;8.472;2023-08-06T02:26:39;17.10;99.90
14735;DHT22;7458;49.002;8.472;2023-08-06T02:29:04;16.80;99.90
14735;DHT22;7458;49.002;8.472;2023-08-06T02:31:30;16.90;99.90
14735;DHT22;7458;49.002;8.472;2023-08-06T02:38:50;17.40;99.90
14735;DHT22;7458;49.002;8.472;2023-08-06T02:41:15;16.90;99.90
14735;DHT22;7458;49.002;8.472;2023-08-06T02:46:07;16.80;99.90
14735;DHT22;7458;49.002;8.472;2023-08-06T02:48:33;17.00;99.90
14735;DHT22;7458;49.002;8.472;2023-08-06T02:50:59;16.70;99.90
14735;DHT22;7458;49.002;8.472;2023-08-06T02:53:25;16.80;99.90
14735;DHT22;7458;49.002;8.472;2023-08-06T02:55:51;16.90;99.90
14735;DHT22;7458;49.002;8.472;2023-08-06T02:58:17;16.70;99.90
14735;DHT22;7458;49.002;8.472;2023-08-06T03:00:58;16.60;99.90
14735;DHT22;7458;49.002;8.472;2023-08-06T03:03:25;16.70;99.90
14735;DHT22;7458;49.002;8.472;2023-08-06T03:05:54;16.70;99.90
14735;DHT22;7458;49.002;8.472;2023-08-06T03:10:48;16.60;99.90
14735;DHT22;7458;49.002;8.472;2023-08-06T03:13:15;16.90;99.90
14735;DHT22;7458;49.002;8.472;2023-08-06T03:15:58;16.50;99.90
14735;DHT22;7458;49.002;8.472;2023-08-06T03:18:25;16.50;99.90
14735;DHT22;7458;49.002;8.472;2023-08-06T03:20:54;16.40;99.90
14735;DHT22;7458;49.002;8.472;2023-08-06T03:23:20;16.50;99.90
14735;DHT22;7458;49.002;8.472;2023-08-06T03:25:46;16.20;99.90
14735;DHT22;7458;49.002;8.472;2023-08-06T03:28:12;16.50;99.90
14735;DHT22;7458;49.002;8.472;2023-08-06T03:30:38;16.20;99.90
14735;DHT22;7458;49.002;8.472;2023-08-06T03:33:04;16.40;99.90
14735;DHT22;7458;49.002;8.472;2023-08-06T03:40:22;16.30;99.90
14735;DHT22;7458;49.002;8.472;2023-08-06T03:45:13;16.80;99.90
14735;DHT22;7458;49.002;8.472;2023-08-06T03:50:06;15.90;99.90
14735;DHT22;7458;49.002;8.472;2023-08-06T03:52:32;16.10;99.90
14735;DHT22;7458;49.002;8.472;2023-08-06T03:57:23;16.20;99.90
14735;DHT22;7458;49.002;8.472;2023-08-06T04:02:15;16.00;99.90
14735;DHT22;7458;49.002;8.472;2023-08-06T04:07:07;16.20;99.90
14735;DHT22;7458;49.002;8.472;2023-08-06T04:16:53;16.00;99.90
14735;DHT22;7458;49.002;8.472;2023-08-06T04:19:18;16.10;99.90
14735;DHT22;7458;49.002;8.472;2023-08-06T04:21:44;15.80;99.90
14735;DHT22;7458;49.002;8.472;2023-08-06T04:29:02;16.10;99.90
14735;DHT22;7458;49.002;8.472;2023-08-06T04:31:29;16.20;99.90
14735;DHT22;7458;49.002;8.472;2023-08-06T04:36:21;16.00;99.90
14735;DHT22;7458;49.002;8.472;2023-08-06T04:43:39;16.30;99.90
14735;DHT22;7458;49.002;8.472;2023-08-06T04:46:05;16.00;99.90
14735;DHT22;7458;49.002;8.472;2023-08-06T04:48:31;15.80;99.90
14735;DHT22;7458;49.002;8.472;2023-08-06T04:50:57;15.80;99.90
14735;DHT22;7458;49.002;8.472;2023-08-06T04:53:23;16.00;99.90
14735;DHT22;7458;49.002;8.472;2023-08-06T04:58:15;16.30;99.90
14735;DHT22;7458;49.002;8.472;2023-08-06T05:05:33;15.70;99.90
14735;DHT22;7458;49.002;8.472;2023-08-06T05:10:25;16.70;99.90
14735;DHT22;7458;49.002;8.472;2023-08-06T05:20:10;16.70;99.90
14735;DHT22;7458;49.002;8.472;2023-08-06T05:27:29;16.00;99.90
14735;DHT22;7458;49.002;8.472;2023-08-06T05:29:55;16.40;99.90
14735;DHT22;7458;49.002;8.472;2023-08-06T05:39:40;17.20;99.90
14735;DHT22;7458;49.002;8.472;2023-08-06T05:51:51;16.20;99.90
14735;DHT22;7458;49.002;8.472;2023-08-06T05:54:18;16.00;99.90
14735;DHT22;7458;49.002;8.472;2023-08-06T06:04:03;15.90;99.90
14735;DHT22;7458;49.002;8.472;2023-08-06T06:06:29;15.90;99.90
14735;DHT22;7458;49.002;8.472;2023-08-06T06:08:55;16.00;99.90
14735;DHT22;7458;49.002;8.472;2023-08-06T06:13:50;16.10;99.90
14735;DHT22;7458;49.002;8.472;2023-08-06T06:18:42;16.00;99.90
14735;DHT22;7458;49.002;8.472;2023-08-06T06:21:09;16.00;99.90
14735;DHT22;7458;49.002;8.472;2023-08-06T06:35:51;16.20;99.90
14735;DHT22;7458;49.002;8.472;2023-08-06T06:38:16;16.20;99.90
14735;DHT22;7458;49.002;8.472;2023-08-06T06:40:42;16.00;99.90
14735;DHT22;7458;49.002;8.472;2023-08-06T06:48:00;15.80;99.90
14735;DHT22;7458;49.002;8.472;2023-08-06T06:50:26;15.90;99.90
14735;DHT22;7458;49.002;8.472;2023-08-06T07:00:10;16.10;99.90
14735;DHT22;7458;49.002;8.472;2023-08-06T07:07:29;16.30;99.90
14735;DHT22;7458;49.002;8.472;2023-08-06T07:09:55;16.30;99.90
14735;DHT22;7458;49.002;8.472;2023-08-06T07:14:48;16.30;99.90
14735;DHT22;7458;49.002;8.472;2023-08-06T07:19:40;16.30;99.90
14735;DHT22;7458;49.002;8.472;2023-08-06T07:29:31;16.40;99.90
14735;DHT22;7458;49.002;8.472;2023-08-06T07:39:18;16.50;99.90
14735;DHT22;7458;49.002;8.472;2023-08-06T07:58:49;16.40;99.90
14735;DHT22;7458;49.002;8.472;2023-08-06T08:01:15;16.00;99.90
14735;DHT22;7458;49.002;8.472;2023-08-06T08:06:06;16.30;99.90
14735;DHT22;7458;49.002;8.472;2023-08-06T08:08:32;16.30;99.90
14735;DHT22;7458;49.002;8.472;2023-08-06T08:13:26;16.60;99.90
14735;DHT22;7458;49.002;8.472;2023-08-06T08:15:57;16.10;99.90
14735;DHT22;7458;49.002;8.472;2023-08-06T08:18:24;15.80;99.90
14735;DHT22;7458;49.002;8.472;2023-08-06T08:23:16;15.80;99.90
14735;DHT22;7458;49.002;8.472;2023-08-06T08:25:42;16.30;99.90
14735;DHT22;7458;49.002;8.472;2023-08-06T08:28:07;15.30;99.90
14735;DHT22;7458;49.002;8.472;2023-08-06T08:30:33;15.10;99.90
14735;DHT22;7458;49.002;8.472;2023-08-06T08:32:59;15.30;99.90
14735;DHT22;7458;49.002;8.472;2023-08-06T08:35:25;15.40;99.90
14735;DHT22;7458;49.002;8.472;2023-08-06T08:37:51;15.10;99.90
14735;DHT22;7458;49.002;8.472;2023-08-06T08:40:17;15.30;99.90
14735;DHT22;7458;49.002;8.472;2023-08-06T08:42:43;14.90;99.90
14735;DHT22;7458;49.002;8.472;2023-08-06T08:45:15;15.40;99.90
14735;DHT22;7458;49.002;8.472;2023-08-06T08:50:10;15.70;99.90
14735;DHT22;7458;49.002;8.472;2023-08-06T08:52:38;15.70;99.90
14735;DHT22;7458;49.002;8.472;2023-08-06T08:55:07;15.70;99.90
14735;DHT22;7458;49.002;8.472;2023-08-06T08:59:59;15.90;99.90
14735;DHT22;7458;49.002;8.472;2023-08-06T09:02:28;16.20;99.90
14735;DHT22;7458;49.002;8.472;2023-08-06T09:04:58;17.00;99.90
14735;DHT22;7458;49.002;8.472;2023-08-06T09:07:37;16.40;99.90
14735;DHT22;7458;49.002;8.472;2023-08-06T09:10:07;16.60;99.90
14735;DHT22;7458;49.002;8.472;2023-08-06T09:12:36;16.50;99.90
14735;DHT22;7458;49.002;8.472;2023-08-06T09:15:03;16.70;99.90
14735;DHT22;7458;49.002;8.472;2023-08-06T09:17:29;16.70;99.90
14735;DHT22;7458;49.002;8.472;2023-08-06T09:19:55;17.20;99.90
14735;DHT22;7458;49.002;8.472;2023-08-06T09:22:21;17.30;99.90
14735;DHT22;7458;49.002;8.472;2023-08-06T09:24:46;17.30;99.90
14735;DHT22;7458;49.002;8.472;2023-08-06T09:27:13;17.90;99.90
14735;DHT22;7458;49.002;8.472;2023-08-06T09:29:46;16.30;99.90
14735;DHT22;7458;49.002;8.472;2023-08-06T09:32:13;17.20;99.90
14735;DHT22;7458;49.002;8.472;2023-08-06T09:34:41;17.00;99.90
14735;DHT22;7458;49.002;8.472;2023-08-06T09:37:09;17.00;99.90
14735;DHT22;7458;49.002;8.472;2023-08-06T09:39:39;16.70;99.90
14735;DHT22;7458;49.002;8.472;2023-08-06T09:42:06;17.40;99.90
14735;DHT22;7458;49.002;8.472;2023-08-06T09:44:33;16.50;99.90
14735;DHT22;7458;49.002;8.472;2023-08-06T09:47:02;16.70;99.90
14735;DHT22;7458;49.002;8.472;2023-08-06T09:49:41;17.50;99.90
14735;DHT22;7458;49.002;8.472;2023-08-06T09:52:14;16.50;99.90
14735;DHT22;7458;49.002;8.472;2023-08-06T09:54:43;16.70;99.90
14735;DHT22;7458;49.002;8.472;2023-08-06T09:59:37;16.30;99.90
14735;DHT22;7458;49.002;8.472;2023-08-06T10:02:12;16.40;99.90
14735;DHT22;7458;49.002;8.472;2023-08-06T10:04:39;16.70;99.90
14735;DHT22;7458;49.002;8.472;2023-08-06T10:09:32;16.40;99.90
14735;DHT22;7458;49.002;8.472;2023-08-06T10:14:30;16.20;99.90
14735;DHT22;7458;49.002;8.472;2023-08-06T10:16:59;16.20;99.90
14735;DHT22;7458;49.002;8.472;2023-08-06T10:19:27;16.10;99.90
14735;DHT22;7458;49.002;8.472;2023-08-06T10:22:15;16.00;99.90
14735;DHT22;7458;49.002;8.472;2023-08-06T10:24:50;15.60;99.90
14735;DHT22;7458;49.002;8.472;2023-08-06T10:27:39;15.90;99.90
14735;DHT22;7458;49.002;8.472;2023-08-06T10:30:28;15.90;99.90
14735;DHT22;7458;49.002;8.472;2023-08-06T10:33:03;15.80;99.90
14735;DHT22;7458;49.002;8.472;2023-08-06T10:35:46;15.40;99.90
14735;DHT22;7458;49.002;8.472;2023-08-06T10:38:19;15.80;99.90
14735;DHT22;7458;49.002;8.472;2023-08-06T10:43:30;15.60;99.90
14735;DHT22;7458;49.002;8.472;2023-08-06T10:45:57;15.60;99.90
14735;DHT22;7458;49.002;8.472;2023-08-06T10:48:33;15.20;99.90
14735;DHT22;7458;49.002;8.472;2023-08-06T10:51:00;15.80;99.90
14735;DHT22;7458;49.002;8.472;2023-08-06T10:53:27;15.70;99.90
14735;DHT22;7458;49.002;8.472;2023-08-06T10:58:19;15.80;99.90
14735;DHT22;7458;49.002;8.472;2023-08-06T11:00:46;15.50;99.90
14735;DHT22;7458;49.002;8.472;2023-08-06T11:03:12;13.60;99.90
14735;DHT22;7458;49.002;8.472;2023-08-06T11:05:39;15.40;99.90
14735;DHT22;7458;49.002;8.472;2023-08-06T11:08:04;15.50;99.90
14735;DHT22;7458;49.002;8.472;2023-08-06T11:10:33;15.50;99.90
14735;DHT22;7458;49.002;8.472;2023-08-06T11:13:03;15.30;99.90
14735;DHT22;7458;49.002;8.472;2023-08-06T11:15:30;15.30;99.90
14735;DHT22;7458;49.002;8.472;2023-08-06T11:17:57;15.60;99.90
14735;DHT22;7458;49.002;8.472;2023-08-06T11:20:24;15.30;99.90
14735;DHT22;7458;49.002;8.472;2023-08-06T11:25:19;15.70;99.90
14735;DHT22;7458;49.002;8.472;2023-08-06T11:27:46;15.60;99.90
14735;DHT22;7458;49.002;8.472;2023-08-06T11:30:11;16.30;99.90
14735;DHT22;7458;49.002;8.472;2023-08-06T11:32:48;15.80;99.90
14735;DHT22;7458;49.002;8.472;2023-08-06T11:35:15;15.90;99.90
14735;DHT22;7458;49.002;8.472;2023-08-06T11:37:45;15.90;99.90
14735;DHT22;7458;49.002;8.472;2023-08-06T11:40:13;16.00;99.90
14735;DHT22;7458;49.002;8.472;2023-08-06T11:42:40;16.40;99.90
14735;DHT22;7458;49.002;8.472;2023-08-06T11:45:08;15.90;99.90
14735;DHT22;7458;49.002;8.472;2023-08-06T11:47:38;16.00;99.90
14735;DHT22;7458;49.002;8.472;2023-08-06T11:50:07;16.20;99.90
14735;DHT22;7458;49.002;8.472;2023-08-06T11:52:33;16.10;99.90
14735;DHT22;7458;49.002;8.472;2023-08-06T11:55:04;16.00;99.90
14735;DHT22;7458;49.002;8.472;2023-08-06T11:57:36;16.30;99.90
14735;DHT22;7458;49.002;8.472;2023-08-06T12:00:10;16.40;99.90
14735;DHT22;7458;49.002;8.472;2023-08-06T12:02:41;16.40;99.90
14735;DHT22;7458;49.002;8.472;2023-08-06T12:05:11;16.60;99.90
14735;DHT22;7458;49.002;8.472;2023-08-06T12:07:45;16.70;99.90
14735;DHT22;7458;49.002;8.472;2023-08-06T12:10:16;16.40;99.90
14735;DHT22;7458;49.002;8.472;2023-08-06T12:12:45;16.80;99.90
14735;DHT22;7458;49.002;8.472;2023-08-06T12:20:05;16.20;99.90
14735;DHT22;7458;49.002;8.472;2023-08-06T12:22:33;16.50;99.90
14735;DHT22;7458;49.002;8.472;2023-08-06T12:25:05;16.50;99.90
14735;DHT22;7458;49.002;8.472;2023-08-06T12:27:40;16.40;99.90
14735;DHT22;7458;49.002;8.472;2023-08-06T12:30:08;16.50;99.90
14735;DHT22;7458;49.002;8.472;2023-08-06T12:32:35;16.60;99.90
14735;DHT22;7458;49.002;8.472;2023-08-06T12:35:01;16.60;99.90
14735;DHT22;7458;49.002;8.472;2023-08-06T12:37:28;17.10;99.90
14735;DHT22;7458;49.002;8.472;2023-08-06T12:42:20;17.80;99.90
14735;DHT22;7458;49.002;8.472;2023-08-06T12:44:48;16.90;99.90
14735;DHT22;7458;49.002;8.472;2023-08-06T12:47:13;17.00;99.90
14735;DHT22;7458;49.002;8.472;2023-08-06T12:49:39;17.20;99.90
14735;DHT22;7458;49.002;8.472;2023-08-06T12:52:05;17.10;99.90
14735;DHT22;7458;49.002;8.472;2023-08-06T12:54:33;17.00;99.90
14735;DHT22;7458;49.002;8.472;2023-08-06T12:57:02;17.40;99.90
14735;DHT22;7458;49.002;8.472;2023-08-06T12:59:29;16.80;99.90
14735;DHT22;7458;49.002;8.472;2023-08-06T13:01:55;17.20;99.90
14735;DHT22;7458;49.002;8.472;2023-08-06T13:04:21;17.00;99.90
14735;DHT22;7458;49.002;8.472;2023-08-06T13:06:46;17.30;99.90
14735;DHT22;7458;49.002;8.472;2023-08-06T13:09:13;17.50;99.90
14735;DHT22;7458;49.002;8.472;2023-08-06T13:11:42;17.60;99.90
14735;DHT22;7458;49.002;8.472;2023-08-06T13:14:13;17.90;99.90
14735;DHT22;7458;49.002;8.472;2023-08-06T13:16:41;17.80;99.90
14735;DHT22;7458;49.002;8.472;2023-08-06T13:19:08;18.20;99.90
14735;DHT22;7458;49.002;8.472;2023-08-06T13:21:59;17.80;99.90
14735;DHT22;7458;49.002;8.472;2023-08-06T13:24:32;18.00;99.90
14735;DHT22;7458;49.002;8.472;2023-08-06T13:26:58;18.00;99.90
14735;DHT22;7458;49.002;8.472;2023-08-06T13:29:25;18.10;99.90
14735;DHT22;7458;49.002;8.472;2023-08-06T13:31:51;18.30;99.90
14735;DHT22;7458;49.002;8.472;2023-08-06T13:34:16;18.80;99.90
14735;DHT22;7458;49.002;8.472;2023-08-06T13:36:42;18.50;99.90
14735;DHT22;7458;49.002;8.472;2023-08-06T13:39:08;18.80;99.90
14735;DHT22;7458;49.002;8.472;2023-08-06T13:44:00;18.70;99.90
14735;DHT22;7458;49.002;8.472;2023-08-06T13:46:26;18.60;99.90
14735;DHT22;7458;49.002;8.472;2023-08-06T13:48:51;18.30;99.90
14735;DHT22;7458;49.002;8.472;2023-08-06T13:51:18;18.40;99.90
14735;DHT22;7458;49.002;8.472;2023-08-06T13:53:44;18.40;99.90
14735;DHT22;7458;49.002;8.472;2023-08-06T13:56:10;17.40;99.90
14735;DHT22;7458;49.002;8.472;2023-08-06T13:58:37;18.10;99.90
14735;DHT22;7458;49.002;8.472;2023-08-06T14:01:03;18.00;99.90
14735;DHT22;7458;49.002;8.472;2023-08-06T14:03:29;18.30;99.90
14735;DHT22;7458;49.002;8.472;2023-08-06T14:05:55;18.00;99.90
14735;DHT22;7458;49.002;8.472;2023-08-06T14:08:22;18.00;99.90
14735;DHT22;7458;49.002;8.472;2023-08-06T14:10:49;18.10;99.90
14735;DHT22;7458;49.002;8.472;2023-08-06T14:13:16;19.00;99.90
14735;DHT22;7458;49.002;8.472;2023-08-06T14:15:42;18.10;99.90
14735;DHT22;7458;49.002;8.472;2023-08-06T14:18:12;18.10;99.90
14735;DHT22;7458;49.002;8.472;2023-08-06T14:20:39;18.50;99.90
14735;DHT22;7458;49.002;8.472;2023-08-06T14:23:05;18.50;99.90
14735;DHT22;7458;49.002;8.472;2023-08-06T14:25:31;18.30;99.90
14735;DHT22;7458;49.002;8.472;2023-08-06T14:27:57;18.10;99.90
14735;DHT22;7458;49.002;8.472;2023-08-06T14:30:23;18.40;99.90
14735;DHT22;7458;49.002;8.472;2023-08-06T14:35:15;18.40;99.90
14735;DHT22;7458;49.002;8.472;2023-08-06T14:37:41;18.50;99.90
14735;DHT22;7458;49.002;8.472;2023-08-06T14:40:07;18.60;99.90
14735;DHT22;7458;49.002;8.472;2023-08-06T14:42:34;18.50;99.90
14735;DHT22;7458;49.002;8.472;2023-08-06T14:44:59;18.40;99.90
14735;DHT22;7458;49.002;8.472;2023-08-06T14:47:25;18.40;99.90
14735;DHT22;7458;49.002;8.472;2023-08-06T14:49:51;18.40;99.90
14735;DHT22;7458;49.002;8.472;2023-08-06T14:52:17;17.70;99.90
14735;DHT22;7458;49.002;8.472;2023-08-06T14:54:42;18.30;99.90
14735;DHT22;7458;49.002;8.472;2023-08-06T14:57:09;18.30;99.90
14735;DHT22;7458;49.002;8.472;2023-08-06T14:59:36;18.40;99.90
14735;DHT22;7458;49.002;8.472;2023-08-06T15:02:01;18.50;99.90
14735;DHT22;7458;49.002;8.472;2023-08-06T15:04:27;18.60;99.90
14735;DHT22;7458;49.002;8.472;2023-08-06T15:06:54;18.80;99.90
14735;DHT22;7458;49.002;8.472;2023-08-06T15:09:20;18.80;99.90
14735;DHT22;7458;49.002;8.472;2023-08-06T15:11:47;19.40;99.90
14735;DHT22;7458;49.002;8.472;2023-08-06T15:14:13;19.10;99.90
14735;DHT22;7458;49.002;8.472;2023-08-06T15:23:59;16.20;99.90
14735;DHT22;7458;49.002;8.472;2023-08-06T15:28:51;18.70;99.90
14735;DHT22;7458;49.002;8.472;2023-08-06T15:31:20;18.70;99.90
14735;DHT22;7458;49.002;8.472;2023-08-06T15:33:47;19.00;99.90
14735;DHT22;7458;49.002;8.472;2023-08-06T15:36:13;18.50;99.90
14735;DHT22;7458;49.002;8.472;2023-08-06T15:38:38;17.40;99.90
14735;DHT22;7458;49.002;8.472;2023-08-06T15:41:04;18.40;99.90
14735;DHT22;7458;49.002;8.472;2023-08-06T15:43:30;18.30;99.90
14735;DHT22;7458;49.002;8.472;2023-08-06T15:45:56;18.40;99.90
14735;DHT22;7458;49.002;8.472;2023-08-06T15:48:21;18.40;99.90
14735;DHT22;7458;49.002;8.472;2023-08-06T15:50:47;17.90;99.90
14735;DHT22;7458;49.002;8.472;2023-08-06T15:53:13;18.20;99.90
14735;DHT22;7458;49.002;8.472;2023-08-06T15:55:38;17.90;99.90
14735;DHT22;7458;49.002;8.472;2023-08-06T16:00:30;17.40;99.90
14735;DHT22;7458;49.002;8.472;2023-08-06T16:07:52;17.30;99.90
14735;DHT22;7458;49.002;8.472;2023-08-06T16:10:17;16.10;99.90
14735;DHT22;7458;49.002;8.472;2023-08-06T16:12:43;16.40;99.90
14735;DHT22;7458;49.002;8.472;2023-08-06T16:15:09;16.10;99.90
14735;DHT22;7458;49.002;8.472;2023-08-06T16:17:36;15.80;99.90
14735;DHT22;7458;49.002;8.472;2023-08-06T16:20:02;16.70;99.90
14735;DHT22;7458;49.002;8.472;2023-08-06T16:22:28;15.70;99.90
14735;DHT22;7458;49.002;8.472;2023-08-06T16:24:54;16.00;99.90
14735;DHT22;7458;49.002;8.472;2023-08-06T16:27:20;16.20;99.90
14735;DHT22;7458;49.002;8.472;2023-08-06T16:29:45;15.90;99.90
14735;DHT22;7458;49.002;8.472;2023-08-06T16:32:13;16.30;99.90
14735;DHT22;7458;49.002;8.472;2023-08-06T16:34:39;15.80;99.90
14735;DHT22;7458;49.002;8.472;2023-08-06T16:37:05;16.80;99.90
14735;DHT22;7458;49.002;8.472;2023-08-06T16:44:24;15.70;99.90
14735;DHT22;7458;49.002;8.472;2023-08-06T17:01:29;16.80;99.90
14735;DHT22;7458;49.002;8.472;2023-08-06T17:25:53;16.70;99.90
14735;DHT22;7458;49.002;8.472;2023-08-06T17:28:22;16.80;99.90
14735;DHT22;7458;49.002;8.472;2023-08-06T17:30:48;16.70;99.90
14735;DHT22;7458;49.002;8.472;2023-08-06T17:33:14;17.00;99.90
14735;DHT22;7458;49.002;8.472;2023-08-06T17:38:12;16.70;99.90
14735;DHT22;7458;49.002;8.472;2023-08-06T17:43:04;16.50;99.90
14735;DHT22;7458;49.002;8.472;2023-08-06T17:45:30;17.00;99.90
14735;DHT22;7458;49.002;8.472;2023-08-06T17:52:49;16.60;99.90
14735;DHT22;7458;49.002;8.472;2023-08-06T18:00:08;16.60;99.90
14735;DHT22;7458;49.002;8.472;2023-08-06T18:05:00;16.70;99.90
14735;DHT22;7458;49.002;8.472;2023-08-06T18:07:26;16.60;99.90
14735;DHT22;7458;49.002;8.472;2023-08-06T18:14:44;16.70;99.90
14735;DHT22;7458;49.002;8.472;2023-08-06T18:17:10;17.20;99.90
14735;DHT22;7458;49.002;8.472;2023-08-06T18:24:28;17.30;99.90
14735;DHT22;7458;49.002;8.472;2023-08-06T18:26:54;16.90;99.90
14735;DHT22;7458;49.002;8.472;2023-08-06T18:29:20;16.60;99.90
14735;DHT22;7458;49.002;8.472;2023-08-06T18:31:46;17.00;99.90
14735;DHT22;7458;49.002;8.472;2023-08-06T18:34:12;16.40;99.90
14735;DHT22;7458;49.002;8.472;2023-08-06T18:36:37;15.90;99.90
14735;DHT22;7458;49.002;8.472;2023-08-06T18:41:30;16.80;99.90
14735;DHT22;7458;49.002;8.472;2023-08-06T18:43:55;16.70;99.90
14735;DHT22;7458;49.002;8.472;2023-08-06T18:48:47;16.70;99.90
14735;DHT22;7458;49.002;8.472;2023-08-06T18:51:13;17.30;99.90
14735;DHT22;7458;49.002;8.472;2023-08-06T18:53:39;16.90;99.90
14735;DHT22;7458;49.002;8.472;2023-08-06T18:56:05;16.80;99.90
14735;DHT22;7458;49.002;8.472;2023-08-06T18:58:30;16.80;99.90
14735;DHT22;7458;49.002;8.472;2023-08-06T19:00:57;16.90;99.90
14735;DHT22;7458;49.002;8.472;2023-08-06T19:13:11;17.00;99.90
14735;DHT22;7458;49.002;8.472;2023-08-06T19:15:38;16.90;99.90
14735;DHT22;7458;49.002;8.472;2023-08-06T19:20:34;16.70;99.90
14735;DHT22;7458;49.002;8.472;2023-08-06T19:23:04;16.60;99.90
14735;DHT22;7458;49.002;8.472;2023-08-06T19:25:30;16.40;99.90
14735;DHT22;7458;49.002;8.472;2023-08-06T19:30:24;16.80;99.90
14735;DHT22;7458;49.002;8.472;2023-08-06T19:42:35;16.50;99.90
14735;DHT22;7458;49.002;8.472;2023-08-06T19:45:01;16.40;99.90
14735;DHT22;7458;49.002;8.472;2023-08-06T19:47:27;16.50;99.90
14735;DHT22;7458;49.002;8.472;2023-08-06T19:49:52;16.00;99.90
14735;DHT22;7458;49.002;8.472;2023-08-06T20:14:14;16.00;99.90
14735;DHT22;7458;49.002;8.472;2023-08-06T20:16:40;14.80;99.90
14735;DHT22;7458;49.002;8.472;2023-08-06T20:19:06;15.20;99.90
14735;DHT22;7458;49.002;8.472;2023-08-06T20:23:57;15.50;99.90
14735;DHT22;7458;49.002;8.472;2023-08-06T20:26:23;15.20;99.90
14735;DHT22;7458;49.002;8.472;2023-08-06T20:28:49;15.00;99.90
14735;DHT22;7458;49.002;8.472;2023-08-06T20:31:15;14.80;99.90
14735;DHT22;7458;49.002;8.472;2023-08-06T20:36:07;14.70;99.90
14735;DHT22;7458;49.002;8.472;2023-08-06T20:38:32;14.60;99.90
14735;DHT22;7458;49.002;8.472;2023-08-06T20:40:58;16.00;99.90
14735;DHT22;7458;49.002;8.472;2023-08-06T20:43:24;14.30;99.90
14735;DHT22;7458;49.002;8.472;2023-08-06T20:45:54;14.30;99.90
14735;DHT22;7458;49.002;8.472;2023-08-06T20:48:22;14.40;99.90
14735;DHT22;7458;49.002;8.472;2023-08-06T20:50:48;14.00;99.90
14735;DHT22;7458;49.002;8.472;2023-08-06T20:53:13;14.10;99.90
14735;DHT22;7458;49.002;8.472;2023-08-06T21:00:32;14.80;99.90
14735;DHT22;7458;49.002;8.472;2023-08-06T21:02:58;14.10;99.90
14735;DHT22;7458;49.002;8.472;2023-08-06T21:05:23;14.00;99.90
14735;DHT22;7458;49.002;8.472;2023-08-06T21:07:51;14.60;99.90
14735;DHT22;7458;49.002;8.472;2023-08-06T21:10:17;14.20;99.90
14735;DHT22;7458;49.002;8.472;2023-08-06T21:12:43;14.50;99.90
14735;DHT22;7458;49.002;8.472;2023-08-06T21:15:09;14.10;99.90
14735;DHT22;7458;49.002;8.472;2023-08-06T21:17:34;14.20;99.90
14735;DHT22;7458;49.002;8.472;2023-08-06T21:20:00;14.30;99.90
14735;DHT22;7458;49.002;8.472;2023-08-06T21:24:52;14.30;99.90
14735;DHT22;7458;49.002;8.472;2023-08-06T21:27:18;15.60;99.90
14735;DHT22;7458;49.002;8.472;2023-08-06T21:29:44;14.10;99.90
14735;DHT22;7458;49.002;8.472;2023-08-06T21:32:10;14.60;99.90
14735;DHT22;7458;49.002;8.472;2023-08-06T21:34:35;14.20;99.90
14735;DHT22;7458;49.002;8.472;2023-08-06T21:37:01;14.60;99.90
14735;DHT22;7458;49.002;8.472;2023-08-06T21:39:27;14.10;99.90
14735;DHT22;7458;49.002;8.472;2023-08-06T21:41:54;14.10;99.90
14735;DHT22;7458;49.002;8.472;2023-08-06T21:44:19;14.30;99.90
14735;DHT22;7458;49.002;8.472;2023-08-06T21:49:11;14.30;99.90
14735;DHT22;7458;49.002;8.472;2023-08-06T21:51:37;14.60;99.90
14735;DHT22;7458;49.002;8.472;2023-08-06T21:54:02;14.30;99.90
14735;DHT22;7458;49.002;8.472;2023-08-06T21:56:29;14.00;99.90
14735;DHT22;7458;49.002;8.472;2023-08-06T21:58:54;14.10;99.90
14735;DHT22;7458;49.002;8.472;2023-08-06T22:11:09;13.90;99.90
14735;DHT22;7458;49.002;8.472;2023-08-06T22:13:36;14.00;99.90
14735;DHT22;7458;49.002;8.472;2023-08-06T22:16:05;13.60;99.90
14735;DHT22;7458;49.002;8.472;2023-08-06T22:18:32;14.00;99.90
14735;DHT22;7458;49.002;8.472;2023-08-06T22:20:58;13.60;99.90
14735;DHT22;7458;49.002;8.472;2023-08-06T22:23:24;14.00;99.90
14735;DHT22;7458;49.002;8.472;2023-08-06T22:25:51;14.00;99.90
14735;DHT22;7458;49.002;8.472;2023-08-06T22:28:19;14.00;99.90